createdAt,value
2022-10-05T00:00:15.144Z,61.28
2022-10-05T00:02:43.015Z,61.12
2022-10-05T00:05:24.077Z,61.06
2022-10-05T00:07:52.679Z,60.76
2022-10-05T00:10:20.430Z,60.95
2022-10-05T00:12:48.489Z,60.77
2022-10-05T00:15:18.169Z,60.94
2022-10-05T00:17:45.435Z,60.69
2022-10-05T00:20:25.183Z,60.92
2022-10-05T00:22:57.866Z,61.15
2022-10-05T00:25:25.037Z,60.79
2022-10-05T00:27:58.114Z,61.02
2022-10-05T00:30:30.691Z,60.72
2022-10-05T00:32:59.824Z,60.19
2022-10-05T00:35:29.332Z,60.92
2022-10-05T00:37:57.054Z,60.97
2022-10-05T00:40:27.559Z,60.95
2022-10-05T00:43:02.111Z,60.99
2022-10-05T00:45:33.624Z,61.72
2022-10-05T00:48:11.780Z,61.56
2022-10-05T00:51:15.982Z,61.78
2022-10-05T00:53:44.252Z,61.33
2022-10-05T00:56:11.766Z,61.33
2022-10-05T00:59:25.797Z,60.81
2022-10-05T01:02:05.463Z,60.95
2022-10-05T01:04:47.576Z,60.68
2022-10-05T01:07:23.393Z,60.46
2022-10-05T01:10:08.213Z,60.19
2022-10-05T01:12:49.321Z,60.52
2022-10-05T01:15:25.154Z,60.35
2022-10-05T01:18:10.896Z,60.61
2022-10-05T01:21:03.549Z,60.67
2022-10-05T01:23:40.207Z,60.04
2022-10-05T01:26:41.247Z,60.40
2022-10-05T01:29:22.449Z,60.94
2022-10-05T01:31:49.757Z,61.40
2022-10-05T01:34:23.178Z,61.29
2022-10-05T01:37:09.738Z,61.56
2022-10-05T01:39:49.226Z,61.73
2022-10-05T01:42:44.998Z,61.65
2022-10-05T01:45:25.043Z,61.78
2022-10-05T01:48:08.972Z,62.40
2022-10-05T01:51:04.024Z,62.51
2022-10-05T01:53:45.851Z,63.01
2022-10-05T01:56:37.383Z,62.66
2022-10-05T02:02:06.178Z,62.09
2022-10-05T02:05:01.406Z,61.94
2022-10-05T02:07:39.156Z,61.99
2022-10-05T02:10:22.148Z,61.45
2022-10-05T02:12:52.998Z,61.21
2022-10-05T02:15:32.030Z,61.15
2022-10-05T02:18:06.866Z,61.74
2022-10-05T02:20:35.289Z,61.34
2022-10-05T02:23:08.031Z,61.08
2022-10-05T02:25:38.819Z,61.42
2022-10-05T02:28:21.770Z,61.11
2022-10-05T02:31:10.703Z,61.24
2022-10-05T02:33:38.637Z,61.55
2022-10-05T02:36:18.551Z,61.35
2022-10-05T02:39:10.237Z,61.39
2022-10-05T02:41:46.630Z,61.54
2022-10-05T02:44:26.656Z,61.41
2022-10-05T02:47:19.712Z,61.82
2022-10-05T02:49:53.107Z,61.91
2022-10-05T02:52:22.087Z,62.02
2022-10-05T02:54:59.140Z,61.79
2022-10-05T02:57:48.204Z,61.66
2022-10-05T03:00:21.828Z,61.58
2022-10-05T03:03:01.216Z,61.67
2022-10-05T03:05:51.628Z,61.02
2022-10-05T03:08:24.914Z,61.03
2022-10-05T03:11:06.476Z,61.23
2022-10-05T03:13:46.618Z,61.42
2022-10-05T03:16:36.341Z,61.23
2022-10-05T03:19:19.463Z,60.81
2022-10-05T03:21:55.293Z,60.37
2022-10-05T03:24:58.358Z,60.22
2022-10-05T03:27:25.792Z,60.41
2022-10-05T03:30:13.815Z,60.78
2022-10-05T03:32:50.990Z,60.54
2022-10-05T03:35:20.834Z,60.28
2022-10-05T03:37:58.724Z,60.37
2022-10-05T03:40:37.012Z,60.44
2022-10-05T03:43:32.479Z,60.21
2022-10-05T03:46:26.546Z,60.02
2022-10-05T03:49:10.833Z,59.91
2022-10-05T03:51:43.286Z,60.25
2022-10-05T03:54:26.037Z,60.12
2022-10-05T03:56:54.823Z,60.14
2022-10-05T03:59:32.219Z,60.44
2022-10-05T04:02:03.124Z,60.06
2022-10-05T04:04:37.675Z,60.50
2022-10-05T04:07:09.789Z,60.56
2022-10-05T04:09:41.223Z,60.23
2022-10-05T04:12:27.756Z,60.19
2022-10-05T04:15:01.751Z,60.26
2022-10-05T04:17:39.453Z,60.30
2022-10-05T04:20:17.645Z,60.00
2022-10-05T04:23:03.888Z,60.07
2022-10-05T04:25:43.659Z,59.91
2022-10-05T04:28:49.856Z,59.83
2022-10-05T04:31:35.586Z,59.93
2022-10-05T04:34:24.464Z,59.80
2022-10-05T04:36:59.283Z,59.79
2022-10-05T04:39:58.963Z,60.03
2022-10-05T04:42:33.720Z,60.27
2022-10-05T04:45:13.461Z,60.11
2022-10-05T04:47:52.165Z,60.07
2022-10-05T04:50:25.424Z,59.89
2022-10-05T04:53:19.459Z,59.86
2022-10-05T04:56:10.256Z,60.08
2022-10-05T04:59:07.522Z,60.09
2022-10-05T05:01:56.967Z,60.07
2022-10-05T05:04:51.798Z,60.07
2022-10-05T05:07:44.783Z,60.21
2022-10-05T05:10:46.550Z,60.26
2022-10-05T05:13:35.246Z,60.35
2022-10-05T05:16:05.965Z,60.20
2022-10-05T05:18:48.944Z,60.35
2022-10-05T05:21:39.932Z,60.68
2022-10-05T05:24:33.986Z,60.60
2022-10-05T05:27:26.524Z,60.74
2022-10-05T05:30:03.141Z,60.76
2022-10-05T05:32:55.389Z,60.75
2022-10-05T05:35:38.036Z,61.10
2022-10-05T05:38:33.580Z,61.55
2022-10-05T05:41:12.418Z,61.62
2022-10-05T05:43:55.673Z,61.50
2022-10-05T05:46:51.242Z,61.14
2022-10-05T05:49:46.016Z,61.16
2022-10-05T05:52:18.454Z,60.09
2022-10-05T05:54:54.078Z,59.97
2022-10-05T05:57:28.926Z,60.10
2022-10-05T06:00:07.559Z,59.25
2022-10-05T06:02:47.227Z,58.68
2022-10-05T06:05:30.589Z,58.28
2022-10-05T06:08:02.345Z,58.09
2022-10-05T06:10:44.065Z,58.05
2022-10-05T06:13:16.912Z,57.36
2022-10-05T06:15:57.769Z,57.32
2022-10-05T06:18:25.680Z,57.06
2022-10-05T06:21:14.886Z,60.45
2022-10-05T06:23:50.719Z,58.08
2022-10-05T06:26:51.246Z,56.64
2022-10-05T06:29:22.845Z,56.15
2022-10-05T06:32:06.900Z,55.58
2022-10-05T06:34:50.237Z,55.33
2022-10-05T06:37:26.144Z,54.45
2022-10-05T06:40:03.147Z,55.02
2022-10-05T06:42:50.039Z,55.00
2022-10-05T06:45:53.944Z,55.76
2022-10-05T06:48:34.295Z,56.30
2022-10-05T06:51:15.643Z,55.81
2022-10-05T06:54:07.980Z,54.73
2022-10-05T06:57:01.431Z,54.12
2022-10-05T06:59:51.031Z,53.69
2022-10-05T07:02:40.276Z,53.80
2022-10-05T07:05:37.888Z,53.05
2022-10-05T07:08:24.338Z,52.19
2022-10-05T07:11:11.351Z,52.42
2022-10-05T07:14:05.203Z,52.63
2022-10-05T07:16:52.681Z,51.71
2022-10-05T07:19:49.319Z,51.32
2022-10-05T07:22:28.247Z,51.00
2022-10-05T07:25:02.228Z,51.29
2022-10-05T07:27:34.728Z,51.73
2022-10-05T07:30:10.440Z,51.95
2022-10-05T07:33:09.280Z,51.61
2022-10-05T07:36:10.932Z,51.65
2022-10-05T07:38:48.507Z,51.68
2022-10-05T07:41:24.219Z,51.27
2022-10-05T07:44:11.670Z,50.16
2022-10-05T07:46:50.239Z,50.60
2022-10-05T07:49:48.848Z,50.38
2022-10-05T07:52:39.074Z,49.78
2022-10-05T07:55:19.125Z,49.54
2022-10-05T07:57:53.387Z,50.37
2022-10-05T08:00:22.820Z,50.51
2022-10-05T08:02:58.508Z,50.17
2022-10-05T08:05:28.878Z,50.04
2022-10-05T08:08:06.811Z,50.03
2022-10-05T08:10:37.069Z,49.68
2022-10-05T08:13:11.187Z,49.38
2022-10-05T08:15:45.315Z,49.89
2022-10-05T08:18:19.598Z,49.73
2022-10-05T08:20:51.916Z,49.18
2022-10-05T08:23:44.542Z,49.23
2022-10-05T08:26:30.445Z,48.68
2022-10-05T08:29:22.420Z,48.51
2022-10-05T08:31:53.131Z,47.83
2022-10-05T08:34:36.104Z,47.02
2022-10-05T08:37:08.663Z,47.10
2022-10-05T08:39:41.241Z,46.36
2022-10-05T08:42:33.444Z,46.51
2022-10-05T08:45:23.092Z,47.20
2022-10-05T08:48:29.603Z,46.40
2022-10-05T08:51:15.895Z,45.61
2022-10-05T08:54:05.059Z,45.07
2022-10-05T08:56:35.595Z,44.90
2022-10-05T08:59:27.916Z,44.86
2022-10-05T09:02:17.185Z,45.86
2022-10-05T09:04:51.202Z,46.09
2022-10-05T09:07:22.182Z,46.00
2022-10-05T09:10:11.397Z,46.04
2022-10-05T09:12:42.024Z,46.09
2022-10-05T09:15:39.509Z,46.43
2022-10-05T09:18:16.207Z,46.03
2022-10-05T09:20:52.964Z,46.25
2022-10-05T09:23:40.322Z,46.04
2022-10-05T09:26:45.458Z,45.36
2022-10-05T09:29:50.705Z,46.08
2022-10-05T09:32:32.948Z,46.02
2022-10-05T09:35:25.915Z,45.71
2022-10-05T09:38:08.306Z,45.90
2022-10-05T09:40:57.763Z,44.03
2022-10-05T09:43:43.996Z,43.72
2022-10-05T09:46:29.182Z,43.55
2022-10-05T09:49:34.543Z,43.64
2022-10-05T09:52:31.410Z,42.87
2022-10-05T09:55:26.638Z,43.16
2022-10-05T09:58:15.904Z,43.10
2022-10-05T10:00:54.239Z,43.25
2022-10-05T10:03:53.058Z,43.45
2022-10-05T10:06:41.820Z,43.46
2022-10-05T10:09:21.761Z,43.73
2022-10-05T10:12:16.240Z,44.55
2022-10-05T10:15:21.328Z,44.50
2022-10-05T10:18:03.899Z,45.27
2022-10-05T10:20:37.516Z,45.74
2022-10-05T10:23:26.723Z,46.40
2022-10-05T10:26:18.321Z,46.97
2022-10-05T10:29:12.608Z,45.40
2022-10-05T10:31:46.340Z,45.13
2022-10-05T10:34:55.505Z,44.77
2022-10-05T10:37:32.390Z,44.32
2022-10-05T10:40:12.677Z,43.30
2022-10-05T10:42:56.156Z,44.03
2022-10-05T10:45:35.852Z,43.99
2022-10-05T10:48:05.177Z,42.99
2022-10-05T10:50:57.495Z,42.42
2022-10-05T10:54:03.568Z,43.64
2022-10-05T10:56:33.600Z,43.55
2022-10-05T10:59:41.343Z,42.52
2022-10-05T11:02:37.683Z,44.25
2022-10-05T11:05:35.687Z,44.15
2022-10-05T11:08:27.872Z,43.70
2022-10-05T11:11:27.092Z,44.38
2022-10-05T11:14:20.996Z,44.86
2022-10-05T11:17:15.516Z,45.07
2022-10-05T11:20:10.521Z,44.50
2022-10-05T11:22:54.815Z,44.35
2022-10-05T11:25:53.695Z,44.34
2022-10-05T11:28:41.179Z,44.11
2022-10-05T11:31:32.447Z,44.58
2022-10-05T11:34:38.705Z,43.94
2022-10-05T11:37:15.873Z,45.83
2022-10-05T11:39:59.917Z,44.51
2022-10-05T11:42:49.173Z,43.20
2022-10-05T11:45:25.193Z,43.75
2022-10-05T11:48:07.709Z,42.57
2022-10-05T11:50:47.450Z,41.90
2022-10-05T11:53:25.895Z,40.60
2022-10-05T11:55:59.741Z,42.94
2022-10-05T11:58:31.210Z,43.26
2022-10-05T12:01:13.591Z,42.47
2022-10-05T12:03:47.077Z,41.78
2022-10-05T12:06:16.918Z,40.69
2022-10-05T12:08:56.610Z,40.50
2022-10-05T12:11:32.713Z,40.58
2022-10-05T12:14:13.597Z,40.36
2022-10-05T12:16:54.272Z,40.63
2022-10-05T12:19:29.705Z,39.88
2022-10-05T12:22:22.408Z,39.58
2022-10-05T12:25:01.748Z,39.38
2022-10-05T12:27:36.664Z,38.56
2022-10-05T12:30:19.000Z,38.72
2022-10-05T12:32:59.514Z,38.81
2022-10-05T12:35:53.511Z,38.91
2022-10-05T12:38:39.217Z,37.98
2022-10-05T12:41:27.522Z,38.56
2022-10-05T12:44:03.446Z,38.81
2022-10-05T12:46:48.797Z,39.02
2022-10-05T12:49:48.570Z,38.39
2022-10-05T12:52:32.950Z,39.01
2022-10-05T12:55:17.039Z,38.56
2022-10-05T12:58:02.125Z,40.61
2022-10-05T13:00:32.593Z,39.53
2022-10-05T13:03:28.577Z,39.69
2022-10-05T13:06:38.021Z,38.95
2022-10-05T13:09:31.014Z,39.17
2022-10-05T13:12:03.814Z,39.43
2022-10-05T13:15:03.571Z,39.93
2022-10-05T13:17:40.493Z,41.21
2022-10-05T13:20:28.233Z,39.54
2022-10-05T13:23:22.617Z,39.48
2022-10-05T13:26:07.826Z,39.44
2022-10-05T13:28:57.039Z,39.08
2022-10-05T13:31:33.054Z,39.39
2022-10-05T13:34:22.459Z,40.34
2022-10-05T13:37:12.501Z,40.03
2022-10-05T13:40:14.895Z,40.23
2022-10-05T13:42:48.362Z,40.46
2022-10-05T13:45:24.153Z,40.56
2022-10-05T13:48:19.687Z,39.72
2022-10-05T13:50:49.789Z,39.85
2022-10-05T13:53:29.458Z,40.47
2022-10-05T13:56:03.804Z,40.42
2022-10-05T13:58:40.912Z,40.89
2022-10-05T14:01:17.789Z,40.56
2022-10-05T14:04:16.211Z,40.32
2022-10-05T14:06:43.968Z,40.17
2022-10-05T14:09:26.561Z,40.09
2022-10-05T14:11:56.304Z,40.01
2022-10-05T14:14:26.435Z,40.43
2022-10-05T14:16:57.220Z,40.71
2022-10-05T14:19:31.290Z,40.16
2022-10-05T14:22:24.528Z,40.06
2022-10-05T14:24:56.120Z,40.05
2022-10-05T14:27:33.453Z,40.05
2022-10-05T14:30:10.215Z,40.24
2022-10-05T14:32:52.206Z,40.62
2022-10-05T14:35:22.940Z,41.45
2022-10-05T14:37:58.333Z,41.06
2022-10-05T14:40:36.119Z,41.16
2022-10-05T14:43:15.694Z,40.98
2022-10-05T14:45:58.086Z,41.39
2022-10-05T14:48:28.779Z,42.10
2022-10-05T14:51:03.338Z,42.39
2022-10-05T14:53:45.901Z,42.09
2022-10-05T14:56:56.794Z,42.23
2022-10-05T14:59:46.724Z,42.29
2022-10-05T15:02:55.561Z,42.79
2022-10-05T15:05:44.474Z,42.97
2022-10-05T15:08:12.054Z,43.28
2022-10-05T15:10:52.302Z,43.44
2022-10-05T15:13:25.946Z,43.13
2022-10-05T15:16:12.277Z,43.71
2022-10-05T15:19:04.435Z,43.37
2022-10-05T15:21:51.956Z,43.82
2022-10-05T15:24:22.659Z,43.82
2022-10-05T15:27:01.987Z,44.49
2022-10-05T15:29:41.966Z,44.67
2022-10-05T15:32:23.992Z,44.75
2022-10-05T15:35:14.388Z,44.88
2022-10-05T15:37:44.734Z,45.01
2022-10-05T15:40:23.685Z,45.71
2022-10-05T15:42:53.560Z,45.58
2022-10-05T15:45:32.314Z,45.42
2022-10-05T15:48:04.961Z,45.40
2022-10-05T15:50:43.691Z,45.39
2022-10-05T15:53:19.753Z,45.39
2022-10-05T15:56:01.308Z,45.82
2022-10-05T15:58:42.167Z,45.97
2022-10-05T16:01:17.023Z,46.02
2022-10-05T16:03:44.555Z,45.78
2022-10-05T16:06:55.005Z,45.60
2022-10-05T16:09:38.449Z,46.06
2022-10-05T16:12:09.615Z,46.29
2022-10-05T16:15:16.515Z,46.54
2022-10-05T16:18:02.480Z,46.77
2022-10-05T16:20:40.949Z,47.46
2022-10-05T16:23:12.614Z,47.85
2022-10-05T16:26:09.022Z,48.12
2022-10-05T16:28:46.040Z,48.49
2022-10-05T16:31:26.633Z,49.27
2022-10-05T16:34:23.221Z,49.67
2022-10-05T16:36:57.675Z,49.66
2022-10-05T16:39:44.045Z,49.99
2022-10-05T16:42:21.615Z,50.02
2022-10-05T16:45:06.992Z,50.33
2022-10-05T16:48:23.994Z,50.77
2022-10-05T16:51:08.726Z,50.98
2022-10-05T16:53:42.145Z,51.07
2022-10-05T16:56:13.648Z,50.86
2022-10-05T16:59:29.220Z,51.03
2022-10-05T17:02:09.008Z,51.28
2022-10-05T17:04:48.668Z,51.54
2022-10-05T17:07:54.762Z,51.63
2022-10-05T17:10:41.041Z,51.92
2022-10-05T17:13:37.351Z,52.10
2022-10-05T17:16:19.894Z,52.26
2022-10-05T17:18:49.052Z,52.81
2022-10-05T17:21:34.839Z,52.90
2022-10-05T17:24:20.348Z,53.06
2022-10-05T17:27:16.133Z,53.04
2022-10-05T17:29:51.786Z,53.17
2022-10-05T17:32:19.267Z,53.48
2022-10-05T17:35:01.493Z,53.63
2022-10-05T17:38:05.330Z,53.67
2022-10-05T17:40:38.510Z,53.82
2022-10-05T17:43:15.388Z,54.10
2022-10-05T17:45:42.541Z,54.38
2022-10-05T17:48:11.568Z,54.53
2022-10-05T17:51:04.782Z,54.85
2022-10-05T17:53:55.112Z,54.96
2022-10-05T17:56:23.183Z,55.32
2022-10-05T17:58:54.410Z,55.31
2022-10-05T18:01:36.132Z,55.62
2022-10-05T18:04:12.800Z,55.40
2022-10-05T18:06:52.637Z,54.02
2022-10-05T18:09:23.210Z,53.94
2022-10-05T18:12:08.583Z,53.56
2022-10-05T18:14:59.371Z,53.69
2022-10-05T18:17:54.787Z,52.72
2022-10-05T18:20:31.537Z,51.89
2022-10-05T18:23:07.540Z,51.91
2022-10-05T18:25:47.152Z,51.87
2022-10-05T18:28:40.675Z,51.62
2022-10-05T18:31:23.544Z,52.14
2022-10-05T18:34:13.198Z,51.94
2022-10-05T18:36:49.720Z,51.45
2022-10-05T18:39:38.422Z,51.62
2022-10-05T18:42:25.372Z,51.14
2022-10-05T18:45:04.076Z,51.65
2022-10-05T18:47:44.325Z,51.07
2022-10-05T18:50:29.022Z,51.06
2022-10-05T18:53:21.270Z,50.56
2022-10-05T18:56:12.949Z,50.56
2022-10-05T18:59:08.487Z,50.33
2022-10-05T19:01:48.505Z,50.27
2022-10-05T19:04:38.080Z,50.43
2022-10-05T19:07:18.413Z,50.13
2022-10-05T19:10:04.665Z,50.08
2022-10-05T19:12:50.089Z,50.38
2022-10-05T19:15:29.483Z,50.64
2022-10-05T19:18:21.627Z,50.30
2022-10-05T19:20:58.623Z,50.09
2022-10-05T19:23:33.570Z,50.59
2022-10-05T19:26:14.668Z,50.78
2022-10-05T19:29:23.695Z,50.92
2022-10-05T19:32:01.023Z,51.42
2022-10-05T19:34:50.564Z,51.91
2022-10-05T19:37:57.358Z,51.89
2022-10-05T19:40:43.478Z,52.11
2022-10-05T19:43:20.284Z,52.58
2022-10-05T19:46:09.237Z,52.43
2022-10-05T19:48:51.608Z,52.50
2022-10-05T19:51:29.297Z,52.69
2022-10-05T19:54:16.492Z,52.91
2022-10-05T19:56:53.028Z,53.17
2022-10-05T19:59:25.219Z,53.18
2022-10-05T20:01:54.672Z,53.26
2022-10-05T20:04:37.474Z,53.12
2022-10-05T20:07:04.825Z,53.35
2022-10-05T20:09:57.945Z,53.40
2022-10-05T20:12:50.553Z,53.76
2022-10-05T20:15:43.367Z,53.94
2022-10-05T20:18:54.488Z,53.91
2022-10-05T20:21:44.691Z,54.50
2022-10-05T20:24:25.351Z,54.97
2022-10-05T20:27:07.111Z,55.29
2022-10-05T20:29:39.480Z,55.58
2022-10-05T20:32:12.952Z,55.65
2022-10-05T20:34:42.773Z,55.64
2022-10-05T20:37:16.120Z,55.69
2022-10-05T20:39:44.197Z,56.02
2022-10-05T20:42:11.900Z,55.86
2022-10-05T20:44:39.571Z,56.20
2022-10-05T20:47:09.654Z,56.02
2022-10-05T20:49:38.740Z,56.07
2022-10-05T20:52:09.711Z,56.53
2022-10-05T20:54:38.509Z,56.40
2022-10-05T20:57:06.503Z,56.41
2022-10-05T20:59:34.788Z,56.54
2022-10-05T21:02:03.981Z,56.90
2022-10-05T21:04:40.808Z,56.66
2022-10-05T21:07:10.139Z,56.75
2022-10-05T21:09:39.422Z,56.70
2022-10-05T21:12:07.346Z,56.98
2022-10-05T21:14:36.332Z,57.09
2022-10-05T21:17:05.432Z,56.98
2022-10-05T21:19:40.383Z,56.96
2022-10-05T21:22:09.403Z,57.30
2022-10-05T21:24:38.370Z,57.22
2022-10-05T21:27:06.190Z,57.26
2022-10-05T21:29:35.290Z,57.40
2022-10-05T21:32:02.958Z,57.60
2022-10-05T21:34:30.299Z,57.47
2022-10-05T21:36:57.881Z,57.64
2022-10-05T21:39:25.583Z,57.58
2022-10-05T21:41:52.893Z,57.57
2022-10-05T21:44:20.527Z,57.46
2022-10-05T21:46:48.251Z,57.62
2022-10-05T21:49:19.555Z,57.36
2022-10-05T21:51:47.805Z,57.81
2022-10-05T21:54:18.246Z,57.98
2022-10-05T21:56:48.478Z,57.78
2022-10-05T21:59:18.714Z,57.82
2022-10-05T22:01:45.998Z,57.73
2022-10-05T22:04:14.959Z,57.91
2022-10-05T22:06:42.379Z,57.78
2022-10-05T22:09:09.926Z,57.95
2022-10-05T22:11:37.809Z,57.72
2022-10-05T22:14:05.176Z,57.91
2022-10-05T22:16:35.411Z,57.97
2022-10-05T22:19:04.705Z,58.45
2022-10-05T22:21:34.192Z,58.25
2022-10-05T22:24:02.696Z,58.27
2022-10-05T22:26:30.437Z,58.43
2022-10-05T22:28:58.591Z,58.74
2022-10-05T22:31:25.943Z,58.79
2022-10-05T22:33:53.776Z,58.47
2022-10-05T22:36:21.296Z,58.66
2022-10-05T22:38:48.655Z,58.73
2022-10-05T22:41:18.211Z,58.62
2022-10-05T22:43:49.900Z,58.57
2022-10-05T22:46:17.990Z,59.02
2022-10-05T22:48:45.428Z,58.90
2022-10-05T22:51:12.739Z,58.83
2022-10-05T22:53:40.366Z,58.90
2022-10-05T22:56:12.642Z,58.96
2022-10-05T22:58:40.826Z,58.84
2022-10-05T23:01:10.469Z,59.27
2022-10-05T23:03:38.415Z,59.32
2022-10-05T23:06:09.000Z,59.27
2022-10-05T23:08:37.382Z,59.46
2022-10-05T23:11:09.365Z,59.46
2022-10-05T23:13:37.198Z,59.59
2022-10-05T23:16:12.264Z,59.49
2022-10-05T23:18:40.547Z,59.49
2022-10-05T23:21:08.880Z,59.18
2022-10-05T23:23:37.350Z,59.27
2022-10-05T23:26:06.979Z,59.28
2022-10-05T23:28:34.680Z,59.71
2022-10-05T23:31:04.378Z,59.71
2022-10-05T23:33:32.237Z,59.73
2022-10-05T23:36:01.095Z,59.48
2022-10-05T23:38:29.559Z,59.52
2022-10-05T23:40:58.876Z,59.63
2022-10-05T23:43:26.920Z,59.67
2022-10-05T23:45:54.801Z,59.69
2022-10-05T23:48:22.758Z,59.85
2022-10-05T23:50:50.328Z,59.69
2022-10-05T23:53:18.284Z,59.81
2022-10-05T23:55:46.045Z,59.82
2022-10-05T23:58:13.359Z,59.77
